Terminal Aerodrome Forecast
Issued by NWS

Home | Current Version | Previous Version | Text Only | Print | Product List | Glossary On
Versions: 1 2 3 4 5 6 7 8 9 10 11 12 13 14 15 16 17
000
FTUS43 KGRB 201700
TAFATW
TAF
KATW 201725Z 2018/2118 32010G17KT P6SM OVC035
     FM210300 35008KT P6SM SCT035
     FM210600 36009KT P6SM BKN020
     FM211400 01012KT P6SM BKN025
      TEMPO 2116/2118 SCT025=

USA.gov is the U.S. government's official web portal to all federal, state and local government web resources and services.